sensor_id;sensor_type;location;lat;lon;timestamp;P1;durP1;ratioP1;P2;durP2;ratioP2
66487;SDS011;53304;54.550;18.526;2023-05-10T00:00:59;5.25;;;2.60;;
66487;SDS011;53304;54.550;18.526;2023-05-10T00:03:27;6.20;;;2.70;;
66487;SDS011;53304;54.550;18.526;2023-05-10T00:05:53;5.00;;;2.60;;
66487;SDS011;53304;54.550;18.526;2023-05-10T00:08:21;6.05;;;3.10;;
66487;SDS011;53304;54.550;18.526;2023-05-10T00:10:48;5.28;;;2.50;;
66487;SDS011;53304;54.550;18.526;2023-05-10T00:13:19;5.65;;;2.75;;
66487;SDS011;53304;54.550;18.526;2023-05-10T00:15:44;5.85;;;2.70;;
66487;SDS011;53304;54.550;18.526;2023-05-10T00:18:12;5.25;;;2.58;;
66487;SDS011;53304;54.550;18.526;2023-05-10T00:20:39;9.15;;;2.80;;
66487;SDS011;53304;54.550;18.526;2023-05-10T00:23:07;7.35;;;2.58;;
66487;SDS011;53304;54.550;18.526;2023-05-10T00:25:35;5.25;;;2.40;;
66487;SDS011;53304;54.550;18.526;2023-05-10T00:28:02;5.22;;;2.72;;
66487;SDS011;53304;54.550;18.526;2023-05-10T00:30:30;6.57;;;2.95;;
66487;SDS011;53304;54.550;18.526;2023-05-10T00:32:57;6.50;;;2.53;;
66487;SDS011;53304;54.550;18.526;2023-05-10T00:35:26;6.55;;;2.42;;
66487;SDS011;53304;54.550;18.526;2023-05-10T00:37:55;6.30;;;2.85;;
66487;SDS011;53304;54.550;18.526;2023-05-10T00:40:21;6.53;;;2.85;;
66487;SDS011;53304;54.550;18.526;2023-05-10T00:42:46;4.97;;;2.30;;
66487;SDS011;53304;54.550;18.526;2023-05-10T00:45:15;7.10;;;2.60;;
66487;SDS011;53304;54.550;18.526;2023-05-10T00:47:42;5.43;;;2.78;;
66487;SDS011;53304;54.550;18.526;2023-05-10T00:50:12;6.88;;;2.83;;
66487;SDS011;53304;54.550;18.526;2023-05-10T00:52:41;4.18;;;2.53;;
66487;SDS011;53304;54.550;18.526;2023-05-10T00:55:10;5.05;;;2.60;;
66487;SDS011;53304;54.550;18.526;2023-05-10T00:57:38;5.65;;;2.42;;
66487;SDS011;53304;54.550;18.526;2023-05-10T01:00:06;6.57;;;2.80;;
66487;SDS011;53304;54.550;18.526;2023-05-10T01:02:33;6.63;;;3.17;;
66487;SDS011;53304;54.550;18.526;2023-05-10T01:05:02;7.35;;;2.80;;
66487;SDS011;53304;54.550;18.526;2023-05-10T01:07:30;5.32;;;2.55;;
66487;SDS011;53304;54.550;18.526;2023-05-10T01:09:56;6.22;;;2.70;;
66487;SDS011;53304;54.550;18.526;2023-05-10T01:12:26;5.72;;;2.70;;
66487;SDS011;53304;54.550;18.526;2023-05-10T01:14:51;4.97;;;2.60;;
66487;SDS011;53304;54.550;18.526;2023-05-10T01:17:17;6.25;;;3.13;;
66487;SDS011;53304;54.550;18.526;2023-05-10T01:19:43;5.90;;;2.70;;
66487;SDS011;53304;54.550;18.526;2023-05-10T01:28:44;5.25;;;2.58;;
66487;SDS011;53304;54.550;18.526;2023-05-10T01:33:33;5.72;;;2.83;;
66487;SDS011;53304;54.550;18.526;2023-05-10T01:46:47;6.85;;;2.70;;
66487;SDS011;53304;54.550;18.526;2023-05-10T01:49:23;5.32;;;2.65;;
66487;SDS011;53304;54.550;18.526;2023-05-10T01:51:55;4.03;;;2.60;;
66487;SDS011;53304;54.550;18.526;2023-05-10T01:54:25;5.47;;;2.90;;
66487;SDS011;53304;54.550;18.526;2023-05-10T01:56:55;6.15;;;2.80;;
66487;SDS011;53304;54.550;18.526;2023-05-10T01:59:29;5.07;;;2.78;;
66487;SDS011;53304;54.550;18.526;2023-05-10T02:02:01;6.65;;;2.70;;
66487;SDS011;53304;54.550;18.526;2023-05-10T02:04:27;5.25;;;2.63;;
66487;SDS011;53304;54.550;18.526;2023-05-10T02:06:53;8.10;;;2.80;;
66487;SDS011;53304;54.550;18.526;2023-05-10T02:09:19;5.15;;;2.63;;
66487;SDS011;53304;54.550;18.526;2023-05-10T02:11:45;7.50;;;2.72;;
66487;SDS011;53304;54.550;18.526;2023-05-10T02:14:13;4.15;;;2.53;;
66487;SDS011;53304;54.550;18.526;2023-05-10T02:16:39;5.35;;;2.58;;
66487;SDS011;53304;54.550;18.526;2023-05-10T02:19:08;5.05;;;2.70;;
66487;SDS011;53304;54.550;18.526;2023-05-10T02:21:34;5.68;;;2.42;;
66487;SDS011;53304;54.550;18.526;2023-05-10T02:24:00;6.20;;;2.85;;
66487;SDS011;53304;54.550;18.526;2023-05-10T02:26:26;5.63;;;2.88;;
66487;SDS011;53304;54.550;18.526;2023-05-10T02:28:57;4.82;;;2.60;;
66487;SDS011;53304;54.550;18.526;2023-05-10T02:31:23;6.45;;;2.55;;
66487;SDS011;53304;54.550;18.526;2023-05-10T02:33:49;5.63;;;2.63;;
66487;SDS011;53304;54.550;18.526;2023-05-10T02:36:15;6.13;;;2.67;;
66487;SDS011;53304;54.550;18.526;2023-05-10T02:38:41;5.68;;;2.95;;
66487;SDS011;53304;54.550;18.526;2023-05-10T02:41:13;6.03;;;3.00;;
66487;SDS011;53304;54.550;18.526;2023-05-10T02:43:39;4.97;;;2.58;;
66487;SDS011;53304;54.550;18.526;2023-05-10T02:46:07;4.55;;;2.40;;
66487;SDS011;53304;54.550;18.526;2023-05-10T02:48:40;7.05;;;2.78;;
66487;SDS011;53304;54.550;18.526;2023-05-10T02:51:07;5.22;;;2.45;;
66487;SDS011;53304;54.550;18.526;2023-05-10T02:53:33;5.70;;;2.58;;
66487;SDS011;53304;54.550;18.526;2023-05-10T02:56:04;6.82;;;2.85;;
66487;SDS011;53304;54.550;18.526;2023-05-10T02:58:32;6.93;;;3.03;;
66487;SDS011;53304;54.550;18.526;2023-05-10T03:01:03;5.47;;;2.80;;
66487;SDS011;53304;54.550;18.526;2023-05-10T03:03:28;5.57;;;2.85;;
66487;SDS011;53304;54.550;18.526;2023-05-10T03:05:53;5.50;;;2.60;;
66487;SDS011;53304;54.550;18.526;2023-05-10T03:08:21;6.15;;;2.78;;
66487;SDS011;53304;54.550;18.526;2023-05-10T03:16:57;5.47;;;2.58;;
66487;SDS011;53304;54.550;18.526;2023-05-10T03:19:32;5.70;;;2.58;;
66487;SDS011;53304;54.550;18.526;2023-05-10T03:22:10;5.05;;;2.65;;
66487;SDS011;53304;54.550;18.526;2023-05-10T03:24:36;4.80;;;2.88;;
66487;SDS011;53304;54.550;18.526;2023-05-10T03:27:01;5.38;;;2.67;;
66487;SDS011;53304;54.550;18.526;2023-05-10T03:29:29;6.43;;;2.50;;
66487;SDS011;53304;54.550;18.526;2023-05-10T03:32:00;8.35;;;2.90;;
66487;SDS011;53304;54.550;18.526;2023-05-10T03:34:25;5.80;;;2.90;;
66487;SDS011;53304;54.550;18.526;2023-05-10T03:36:51;6.67;;;2.77;;
66487;SDS011;53304;54.550;18.526;2023-05-10T03:39:17;6.45;;;2.63;;
66487;SDS011;53304;54.550;18.526;2023-05-10T03:41:42;6.45;;;3.05;;
66487;SDS011;53304;54.550;18.526;2023-05-10T03:44:07;5.35;;;2.40;;
66487;SDS011;53304;54.550;18.526;2023-05-10T03:46:33;5.43;;;2.70;;
66487;SDS011;53304;54.550;18.526;2023-05-10T03:48:58;6.03;;;2.63;;
66487;SDS011;53304;54.550;18.526;2023-05-10T03:51:24;5.25;;;2.60;;
66487;SDS011;53304;54.550;18.526;2023-05-10T03:53:53;4.95;;;2.78;;
66487;SDS011;53304;54.550;18.526;2023-05-10T03:56:19;4.72;;;2.53;;
66487;SDS011;53304;54.550;18.526;2023-05-10T03:58:45;4.68;;;2.65;;
66487;SDS011;53304;54.550;18.526;2023-05-10T04:01:13;4.22;;;2.55;;
66487;SDS011;53304;54.550;18.526;2023-05-10T04:03:41;4.90;;;2.42;;
66487;SDS011;53304;54.550;18.526;2023-05-10T04:06:07;7.57;;;2.90;;
66487;SDS011;53304;54.550;18.526;2023-05-10T04:08:34;4.72;;;2.65;;
66487;SDS011;53304;54.550;18.526;2023-05-10T04:11:07;6.32;;;2.58;;
66487;SDS011;53304;54.550;18.526;2023-05-10T04:13:37;5.30;;;2.70;;
66487;SDS011;53304;54.550;18.526;2023-05-10T04:16:03;5.93;;;2.53;;
66487;SDS011;53304;54.550;18.526;2023-05-10T04:18:31;5.28;;;2.42;;
66487;SDS011;53304;54.550;18.526;2023-05-10T04:20:57;6.80;;;2.60;;
66487;SDS011;53304;54.550;18.526;2023-05-10T04:23:22;5.72;;;2.42;;
66487;SDS011;53304;54.550;18.526;2023-05-10T04:25:48;5.13;;;2.88;;
66487;SDS011;53304;54.550;18.526;2023-05-10T04:28:13;7.45;;;2.80;;
66487;SDS011;53304;54.550;18.526;2023-05-10T04:30:41;5.32;;;2.70;;
66487;SDS011;53304;54.550;18.526;2023-05-10T04:33:09;5.07;;;3.00;;
66487;SDS011;53304;54.550;18.526;2023-05-10T04:35:34;5.10;;;2.80;;
66487;SDS011;53304;54.550;18.526;2023-05-10T04:38:00;9.40;;;2.90;;
66487;SDS011;53304;54.550;18.526;2023-05-10T04:40:25;4.95;;;2.70;;
66487;SDS011;53304;54.550;18.526;2023-05-10T04:42:51;4.68;;;2.78;;
66487;SDS011;53304;54.550;18.526;2023-05-10T04:45:21;5.30;;;2.70;;
66487;SDS011;53304;54.550;18.526;2023-05-10T04:47:47;4.55;;;2.60;;
66487;SDS011;53304;54.550;18.526;2023-05-10T04:50:15;6.03;;;2.90;;
66487;SDS011;53304;54.550;18.526;2023-05-10T04:52:40;5.68;;;2.83;;
66487;SDS011;53304;54.550;18.526;2023-05-10T04:55:10;5.88;;;2.42;;
66487;SDS011;53304;54.550;18.526;2023-05-10T04:57:35;6.40;;;2.85;;
66487;SDS011;53304;54.550;18.526;2023-05-10T05:00:01;6.90;;;2.58;;
66487;SDS011;53304;54.550;18.526;2023-05-10T05:02:26;8.07;;;3.33;;
66487;SDS011;53304;54.550;18.526;2023-05-10T05:04:52;6.30;;;2.72;;
66487;SDS011;53304;54.550;18.526;2023-05-10T05:07:17;4.38;;;2.45;;
66487;SDS011;53304;54.550;18.526;2023-05-10T05:09:43;4.53;;;2.55;;
66487;SDS011;53304;54.550;18.526;2023-05-10T05:12:13;5.20;;;2.30;;
66487;SDS011;53304;54.550;18.526;2023-05-10T05:14:41;5.00;;;2.35;;
66487;SDS011;53304;54.550;18.526;2023-05-10T05:17:08;4.68;;;2.47;;
66487;SDS011;53304;54.550;18.526;2023-05-10T05:19:36;5.72;;;2.78;;
66487;SDS011;53304;54.550;18.526;2023-05-10T05:22:01;7.18;;;2.50;;
66487;SDS011;53304;54.550;18.526;2023-05-10T05:24:32;3.92;;;2.45;;
66487;SDS011;53304;54.550;18.526;2023-05-10T05:27:00;9.57;;;2.40;;
66487;SDS011;53304;54.550;18.526;2023-05-10T05:29:30;5.85;;;2.70;;
66487;SDS011;53304;54.550;18.526;2023-05-10T05:31:56;7.57;;;2.42;;
66487;SDS011;53304;54.550;18.526;2023-05-10T05:34:23;6.13;;;2.20;;
66487;SDS011;53304;54.550;18.526;2023-05-10T05:36:49;7.18;;;2.67;;
66487;SDS011;53304;54.550;18.526;2023-05-10T05:39:19;5.72;;;2.40;;
66487;SDS011;53304;54.550;18.526;2023-05-10T05:41:47;6.72;;;2.60;;
66487;SDS011;53304;54.550;18.526;2023-05-10T05:44:15;4.82;;;2.25;;
66487;SDS011;53304;54.550;18.526;2023-05-10T05:46:40;8.10;;;2.58;;
66487;SDS011;53304;54.550;18.526;2023-05-10T05:49:06;5.50;;;2.28;;
66487;SDS011;53304;54.550;18.526;2023-05-10T05:51:33;11.05;;;2.90;;
66487;SDS011;53304;54.550;18.526;2023-05-10T05:54:00;9.95;;;3.08;;
66487;SDS011;53304;54.550;18.526;2023-05-10T05:56:26;8.05;;;3.45;;
66487;SDS011;53304;54.550;18.526;2023-05-10T05:58:53;16.02;;;3.63;;
66487;SDS011;53304;54.550;18.526;2023-05-10T06:01:19;9.07;;;3.03;;
66487;SDS011;53304;54.550;18.526;2023-05-10T06:03:44;11.30;;;3.00;;
66487;SDS011;53304;54.550;18.526;2023-05-10T06:06:12;9.77;;;3.45;;
66487;SDS011;53304;54.550;18.526;2023-05-10T06:08:43;7.57;;;3.33;;
66487;SDS011;53304;54.550;18.526;2023-05-10T06:11:08;8.88;;;3.47;;
66487;SDS011;53304;54.550;18.526;2023-05-10T06:13:34;7.80;;;3.50;;
66487;SDS011;53304;54.550;18.526;2023-05-10T06:16:04;11.43;;;4.10;;
66487;SDS011;53304;54.550;18.526;2023-05-10T06:18:30;7.47;;;3.58;;
66487;SDS011;53304;54.550;18.526;2023-05-10T06:20:58;10.60;;;3.55;;
66487;SDS011;53304;54.550;18.526;2023-05-10T06:23:28;6.95;;;3.25;;
66487;SDS011;53304;54.550;18.526;2023-05-10T06:25:57;10.35;;;4.03;;
66487;SDS011;53304;54.550;18.526;2023-05-10T06:28:25;7.47;;;3.50;;
66487;SDS011;53304;54.550;18.526;2023-05-10T06:30:50;13.25;;;3.47;;
66487;SDS011;53304;54.550;18.526;2023-05-10T06:33:16;10.02;;;3.60;;
66487;SDS011;53304;54.550;18.526;2023-05-10T06:35:43;7.15;;;3.15;;
66487;SDS011;53304;54.550;18.526;2023-05-10T06:38:11;6.95;;;3.60;;
66487;SDS011;53304;54.550;18.526;2023-05-10T06:40:37;8.70;;;3.70;;
66487;SDS011;53304;54.550;18.526;2023-05-10T06:43:06;9.15;;;3.17;;
66487;SDS011;53304;54.550;18.526;2023-05-10T06:45:31;7.97;;;3.70;;
66487;SDS011;53304;54.550;18.526;2023-05-10T06:47:59;13.23;;;3.75;;
66487;SDS011;53304;54.550;18.526;2023-05-10T06:50:24;6.55;;;3.50;;
66487;SDS011;53304;54.550;18.526;2023-05-10T06:52:50;9.77;;;3.88;;
66487;SDS011;53304;54.550;18.526;2023-05-10T06:55:15;7.85;;;3.67;;
66487;SDS011;53304;54.550;18.526;2023-05-10T06:57:41;13.30;;;4.15;;
66487;SDS011;53304;54.550;18.526;2023-05-10T07:00:06;10.68;;;3.55;;
66487;SDS011;53304;54.550;18.526;2023-05-10T07:02:35;8.60;;;4.05;;
66487;SDS011;53304;54.550;18.526;2023-05-10T07:05:00;17.17;;;4.22;;
66487;SDS011;53304;54.550;18.526;2023-05-10T07:07:27;8.93;;;3.40;;
66487;SDS011;53304;54.550;18.526;2023-05-10T07:09:52;17.33;;;3.65;;
66487;SDS011;53304;54.550;18.526;2023-05-10T07:12:18;15.52;;;3.65;;
66487;SDS011;53304;54.550;18.526;2023-05-10T07:14:45;17.45;;;3.90;;
66487;SDS011;53304;54.550;18.526;2023-05-10T07:17:11;16.80;;;4.15;;
66487;SDS011;53304;54.550;18.526;2023-05-10T07:19:37;14.65;;;3.90;;
66487;SDS011;53304;54.550;18.526;2023-05-10T07:22:04;11.70;;;3.67;;
66487;SDS011;53304;54.550;18.526;2023-05-10T07:24:30;11.40;;;3.45;;
66487;SDS011;53304;54.550;18.526;2023-05-10T07:26:58;13.88;;;3.78;;
66487;SDS011;53304;54.550;18.526;2023-05-10T07:29:26;9.07;;;3.70;;
66487;SDS011;53304;54.550;18.526;2023-05-10T07:31:52;8.65;;;3.55;;
66487;SDS011;53304;54.550;18.526;2023-05-10T07:34:20;7.80;;;3.28;;
66487;SDS011;53304;54.550;18.526;2023-05-10T07:36:46;6.20;;;3.20;;
66487;SDS011;53304;54.550;18.526;2023-05-10T07:39:14;9.35;;;3.38;;
66487;SDS011;53304;54.550;18.526;2023-05-10T07:41:42;8.95;;;3.17;;
66487;SDS011;53304;54.550;18.526;2023-05-10T07:44:07;8.43;;;3.70;;
66487;SDS011;53304;54.550;18.526;2023-05-10T07:46:33;9.85;;;3.88;;
66487;SDS011;53304;54.550;18.526;2023-05-10T07:48:58;11.10;;;3.55;;
66487;SDS011;53304;54.550;18.526;2023-05-10T07:51:23;9.82;;;3.22;;
66487;SDS011;53304;54.550;18.526;2023-05-10T07:53:49;9.35;;;3.20;;
66487;SDS011;53304;54.550;18.526;2023-05-10T07:58:49;6.93;;;2.73;;
66487;SDS011;53304;54.550;18.526;2023-05-10T08:01:14;7.95;;;2.72;;
66487;SDS011;53304;54.550;18.526;2023-05-10T08:03:40;8.68;;;2.72;;
66487;SDS011;53304;54.550;18.526;2023-05-10T08:06:07;8.07;;;2.67;;
66487;SDS011;53304;54.550;18.526;2023-05-10T08:08:36;7.65;;;3.20;;
66487;SDS011;53304;54.550;18.526;2023-05-10T08:11:01;7.97;;;2.90;;
66487;SDS011;53304;54.550;18.526;2023-05-10T08:13:27;9.70;;;3.45;;
66487;SDS011;53304;54.550;18.526;2023-05-10T08:15:52;7.50;;;3.05;;
66487;SDS011;53304;54.550;18.526;2023-05-10T08:18:22;6.63;;;2.63;;
66487;SDS011;53304;54.550;18.526;2023-05-10T08:20:49;7.03;;;3.08;;
66487;SDS011;53304;54.550;18.526;2023-05-10T08:23:14;7.43;;;3.00;;
66487;SDS011;53304;54.550;18.526;2023-05-10T08:25:40;5.63;;;2.97;;
66487;SDS011;53304;54.550;18.526;2023-05-10T08:28:05;7.70;;;3.58;;
66487;SDS011;53304;54.550;18.526;2023-05-10T08:30:31;9.40;;;3.08;;
66487;SDS011;53304;54.550;18.526;2023-05-10T08:32:59;5.05;;;2.55;;
66487;SDS011;53304;54.550;18.526;2023-05-10T08:35:24;7.22;;;2.78;;
66487;SDS011;53304;54.550;18.526;2023-05-10T08:37:52;4.60;;;2.83;;
66487;SDS011;53304;54.550;18.526;2023-05-10T08:40:20;7.70;;;2.80;;
66487;SDS011;53304;54.550;18.526;2023-05-10T08:42:50;9.45;;;2.83;;
66487;SDS011;53304;54.550;18.526;2023-05-10T08:45:19;8.30;;;2.80;;
66487;SDS011;53304;54.550;18.526;2023-05-10T08:47:47;5.25;;;2.80;;
66487;SDS011;53304;54.550;18.526;2023-05-10T08:50:14;7.78;;;2.55;;
66487;SDS011;53304;54.550;18.526;2023-05-10T08:52:45;5.25;;;2.80;;
66487;SDS011;53304;54.550;18.526;2023-05-10T08:55:13;7.88;;;2.78;;
66487;SDS011;53304;54.550;18.526;2023-05-10T08:57:39;7.70;;;2.42;;
66487;SDS011;53304;54.550;18.526;2023-05-10T09:00:07;8.73;;;2.80;;
66487;SDS011;53304;54.550;18.526;2023-05-10T09:02:33;8.93;;;2.88;;
66487;SDS011;53304;54.550;18.526;2023-05-10T09:04:58;8.60;;;2.70;;
66487;SDS011;53304;54.550;18.526;2023-05-10T09:07:24;7.85;;;2.95;;
66487;SDS011;53304;54.550;18.526;2023-05-10T09:09:54;6.75;;;2.80;;
66487;SDS011;53304;54.550;18.526;2023-05-10T09:12:20;6.00;;;2.80;;
66487;SDS011;53304;54.550;18.526;2023-05-10T09:14:45;8.98;;;2.70;;
66487;SDS011;53304;54.550;18.526;2023-05-10T09:17:11;6.80;;;2.63;;
66487;SDS011;53304;54.550;18.526;2023-05-10T09:19:36;9.18;;;2.50;;
66487;SDS011;53304;54.550;18.526;2023-05-10T09:22:07;7.50;;;2.15;;
66487;SDS011;53304;54.550;18.526;2023-05-10T09:24:33;6.82;;;2.42;;
66487;SDS011;53304;54.550;18.526;2023-05-10T09:26:58;7.85;;;2.60;;
66487;SDS011;53304;54.550;18.526;2023-05-10T09:29:28;6.82;;;2.60;;
66487;SDS011;53304;54.550;18.526;2023-05-10T09:32:04;7.82;;;2.40;;
66487;SDS011;53304;54.550;18.526;2023-05-10T09:34:32;7.43;;;2.40;;
66487;SDS011;53304;54.550;18.526;2023-05-10T09:37:01;7.45;;;2.40;;
66487;SDS011;53304;54.550;18.526;2023-05-10T09:39:34;7.95;;;2.25;;
66487;SDS011;53304;54.550;18.526;2023-05-10T09:42:09;9.57;;;2.72;;
66487;SDS011;53304;54.550;18.526;2023-05-10T09:44:35;8.35;;;2.58;;
66487;SDS011;53304;54.550;18.526;2023-05-10T09:47:04;7.47;;;2.30;;
66487;SDS011;53304;54.550;18.526;2023-05-10T09:49:30;9.63;;;2.30;;
66487;SDS011;53304;54.550;18.526;2023-05-10T09:52:02;7.95;;;2.60;;
66487;SDS011;53304;54.550;18.526;2023-05-10T09:54:29;6.80;;;2.50;;
66487;SDS011;53304;54.550;18.526;2023-05-10T09:56:57;10.52;;;2.95;;
66487;SDS011;53304;54.550;18.526;2023-05-10T09:59:28;6.10;;;2.70;;
66487;SDS011;53304;54.550;18.526;2023-05-10T10:01:57;8.02;;;2.50;;
66487;SDS011;53304;54.550;18.526;2023-05-10T10:04:25;5.65;;;2.50;;
66487;SDS011;53304;54.550;18.526;2023-05-10T10:07:01;8.40;;;2.45;;
66487;SDS011;53304;54.550;18.526;2023-05-10T10:09:28;7.85;;;2.25;;
66487;SDS011;53304;54.550;18.526;2023-05-10T10:11:56;7.70;;;2.40;;
66487;SDS011;53304;54.550;18.526;2023-05-10T10:14:22;7.85;;;2.55;;
66487;SDS011;53304;54.550;18.526;2023-05-10T10:19:46;4.55;;;2.20;;
66487;SDS011;53304;54.550;18.526;2023-05-10T10:22:13;4.65;;;2.00;;
66487;SDS011;53304;54.550;18.526;2023-05-10T10:24:41;6.43;;;2.40;;
66487;SDS011;53304;54.550;18.526;2023-05-10T10:32:59;4.55;;;2.47;;
66487;SDS011;53304;54.550;18.526;2023-05-10T10:35:38;5.15;;;2.13;;
66487;SDS011;53304;54.550;18.526;2023-05-10T10:38:04;8.15;;;2.80;;
66487;SDS011;53304;54.550;18.526;2023-05-10T10:40:32;6.88;;;2.50;;
66487;SDS011;53304;54.550;18.526;2023-05-10T10:43:43;10.63;;;2.72;;
66487;SDS011;53304;54.550;18.526;2023-05-10T10:48:46;4.25;;;2.17;;
66487;SDS011;53304;54.550;18.526;2023-05-10T10:51:16;6.22;;;2.22;;
66487;SDS011;53304;54.550;18.526;2023-05-10T10:53:42;6.45;;;2.50;;
66487;SDS011;53304;54.550;18.526;2023-05-10T10:56:09;6.57;;;2.40;;
66487;SDS011;53304;54.550;18.526;2023-05-10T10:58:38;8.30;;;2.60;;
66487;SDS011;53304;54.550;18.526;2023-05-10T11:01:17;10.13;;;2.75;;
66487;SDS011;53304;54.550;18.526;2023-05-10T11:03:55;6.53;;;2.92;;
66487;SDS011;53304;54.550;18.526;2023-05-10T11:06:34;4.63;;;2.17;;
66487;SDS011;53304;54.550;18.526;2023-05-10T11:09:09;11.77;;;2.60;;
66487;SDS011;53304;54.550;18.526;2023-05-10T11:11:36;7.68;;;2.10;;
66487;SDS011;53304;54.550;18.526;2023-05-10T11:14:18;7.10;;;2.17;;
66487;SDS011;53304;54.550;18.526;2023-05-10T11:16:45;5.13;;;2.47;;
66487;SDS011;53304;54.550;18.526;2023-05-10T11:19:13;5.85;;;2.47;;
66487;SDS011;53304;54.550;18.526;2023-05-10T11:24:20;4.15;;;2.20;;
66487;SDS011;53304;54.550;18.526;2023-05-10T11:26:49;5.50;;;2.30;;
66487;SDS011;53304;54.550;18.526;2023-05-10T11:29:15;6.00;;;2.42;;
66487;SDS011;53304;54.550;18.526;2023-05-10T11:31:44;6.30;;;2.30;;
66487;SDS011;53304;54.550;18.526;2023-05-10T11:34:11;4.70;;;2.20;;
66487;SDS011;53304;54.550;18.526;2023-05-10T11:36:46;8.65;;;2.40;;
66487;SDS011;53304;54.550;18.526;2023-05-10T11:39:16;5.80;;;2.28;;
66487;SDS011;53304;54.550;18.526;2023-05-10T11:41:44;4.78;;;2.17;;
66487;SDS011;53304;54.550;18.526;2023-05-10T11:44:13;5.70;;;2.20;;
66487;SDS011;53304;54.550;18.526;2023-05-10T11:46:38;6.28;;;2.53;;
66487;SDS011;53304;54.550;18.526;2023-05-10T11:49:06;5.05;;;2.17;;
66487;SDS011;53304;54.550;18.526;2023-05-10T11:51:35;4.68;;;2.13;;
66487;SDS011;53304;54.550;18.526;2023-05-10T11:54:02;5.43;;;2.10;;
66487;SDS011;53304;54.550;18.526;2023-05-10T11:56:32;6.05;;;2.22;;
66487;SDS011;53304;54.550;18.526;2023-05-10T11:59:00;4.38;;;2.40;;
66487;SDS011;53304;54.550;18.526;2023-05-10T12:01:27;7.25;;;2.30;;
66487;SDS011;53304;54.550;18.526;2023-05-10T12:03:55;7.70;;;2.50;;
66487;SDS011;53304;54.550;18.526;2023-05-10T12:06:31;7.05;;;2.45;;
66487;SDS011;53304;54.550;18.526;2023-05-10T12:08:58;6.90;;;2.25;;
66487;SDS011;53304;54.550;18.526;2023-05-10T12:11:27;5.88;;;2.00;;
66487;SDS011;53304;54.550;18.526;2023-05-10T12:13:53;6.15;;;2.10;;
66487;SDS011;53304;54.550;18.526;2023-05-10T12:16:22;9.45;;;2.42;;
66487;SDS011;53304;54.550;18.526;2023-05-10T12:18:52;7.47;;;2.38;;
66487;SDS011;53304;54.550;18.526;2023-05-10T12:21:25;7.18;;;2.38;;
66487;SDS011;53304;54.550;18.526;2023-05-10T12:23:53;7.00;;;2.05;;
66487;SDS011;53304;54.550;18.526;2023-05-10T12:26:23;3.83;;;2.10;;
66487;SDS011;53304;54.550;18.526;2023-05-10T12:28:53;5.75;;;2.30;;
66487;SDS011;53304;54.550;18.526;2023-05-10T12:31:22;7.53;;;2.80;;
66487;SDS011;53304;54.550;18.526;2023-05-10T12:33:47;6.25;;;2.15;;
66487;SDS011;53304;54.550;18.526;2023-05-10T12:36:14;9.60;;;2.30;;
66487;SDS011;53304;54.550;18.526;2023-05-10T12:38:45;6.70;;;2.20;;
66487;SDS011;53304;54.550;18.526;2023-05-10T12:41:15;6.13;;;2.17;;
66487;SDS011;53304;54.550;18.526;2023-05-10T12:43:41;5.80;;;2.10;;
66487;SDS011;53304;54.550;18.526;2023-05-10T12:46:07;6.03;;;2.15;;
66487;SDS011;53304;54.550;18.526;2023-05-10T12:48:33;7.65;;;2.63;;
66487;SDS011;53304;54.550;18.526;2023-05-10T12:51:00;7.63;;;2.25;;
66487;SDS011;53304;54.550;18.526;2023-05-10T12:53:28;4.07;;;2.10;;
66487;SDS011;53304;54.550;18.526;2023-05-10T12:55:54;6.93;;;2.03;;
66487;SDS011;53304;54.550;18.526;2023-05-10T12:58:20;4.90;;;2.30;;
66487;SDS011;53304;54.550;18.526;2023-05-10T13:00:45;5.38;;;2.10;;
66487;SDS011;53304;54.550;18.526;2023-05-10T13:03:11;6.40;;;2.13;;
66487;SDS011;53304;54.550;18.526;2023-05-10T13:05:37;5.82;;;2.35;;
66487;SDS011;53304;54.550;18.526;2023-05-10T13:08:02;6.47;;;2.75;;
66487;SDS011;53304;54.550;18.526;2023-05-10T13:10:30;4.70;;;2.03;;
66487;SDS011;53304;54.550;18.526;2023-05-10T13:12:58;4.38;;;2.20;;
66487;SDS011;53304;54.550;18.526;2023-05-10T13:15:26;5.75;;;2.42;;
66487;SDS011;53304;54.550;18.526;2023-05-10T13:17:52;6.95;;;2.45;;
66487;SDS011;53304;54.550;18.526;2023-05-10T13:20:18;7.30;;;2.20;;
66487;SDS011;53304;54.550;18.526;2023-05-10T13:22:46;5.63;;;2.30;;
66487;SDS011;53304;54.550;18.526;2023-05-10T13:25:15;8.10;;;2.35;;
66487;SDS011;53304;54.550;18.526;2023-05-10T13:27:43;5.70;;;2.20;;
66487;SDS011;53304;54.550;18.526;2023-05-10T13:30:09;4.38;;;2.20;;
66487;SDS011;53304;54.550;18.526;2023-05-10T13:32:36;4.82;;;2.10;;
66487;SDS011;53304;54.550;18.526;2023-05-10T13:35:04;4.13;;;1.83;;
66487;SDS011;53304;54.550;18.526;2023-05-10T13:37:35;4.88;;;2.28;;
66487;SDS011;53304;54.550;18.526;2023-05-10T13:40:02;8.85;;;2.35;;
66487;SDS011;53304;54.550;18.526;2023-05-10T13:42:29;4.97;;;2.10;;
66487;SDS011;53304;54.550;18.526;2023-05-10T13:44:58;4.85;;;2.17;;
66487;SDS011;53304;54.550;18.526;2023-05-10T13:47:24;3.15;;;1.83;;
66487;SDS011;53304;54.550;18.526;2023-05-10T13:49:52;5.80;;;2.28;;
66487;SDS011;53304;54.550;18.526;2023-05-10T13:52:18;6.03;;;2.30;;
66487;SDS011;53304;54.550;18.526;2023-05-10T13:54:44;4.95;;;2.05;;
66487;SDS011;53304;54.550;18.526;2023-05-10T13:57:14;5.32;;;2.13;;
66487;SDS011;53304;54.550;18.526;2023-05-10T13:59:47;7.25;;;2.17;;
66487;SDS011;53304;54.550;18.526;2023-05-10T14:02:13;6.43;;;2.28;;
66487;SDS011;53304;54.550;18.526;2023-05-10T14:04:38;3.28;;;1.98;;
66487;SDS011;53304;54.550;18.526;2023-05-10T14:07:06;7.03;;;1.98;;
66487;SDS011;53304;54.550;18.526;2023-05-10T14:09:34;6.63;;;2.13;;
66487;SDS011;53304;54.550;18.526;2023-05-10T14:12:00;9.82;;;2.58;;
66487;SDS011;53304;54.550;18.526;2023-05-10T14:14:25;5.47;;;2.55;;
66487;SDS011;53304;54.550;18.526;2023-05-10T14:16:51;7.13;;;2.40;;
66487;SDS011;53304;54.550;18.526;2023-05-10T14:19:19;6.80;;;2.40;;
66487;SDS011;53304;54.550;18.526;2023-05-10T14:21:47;8.45;;;2.92;;
66487;SDS011;53304;54.550;18.526;2023-05-10T14:24:12;4.82;;;2.20;;
66487;SDS011;53304;54.550;18.526;2023-05-10T14:26:38;4.53;;;2.00;;
66487;SDS011;53304;54.550;18.526;2023-05-10T14:29:03;7.68;;;2.40;;
66487;SDS011;53304;54.550;18.526;2023-05-10T14:31:29;6.70;;;2.20;;
66487;SDS011;53304;54.550;18.526;2023-05-10T14:33:57;4.13;;;2.17;;
66487;SDS011;53304;54.550;18.526;2023-05-10T14:36:25;4.45;;;2.38;;
66487;SDS011;53304;54.550;18.526;2023-05-10T14:38:52;6.80;;;2.50;;
66487;SDS011;53304;54.550;18.526;2023-05-10T14:41:18;5.72;;;2.45;;
66487;SDS011;53304;54.550;18.526;2023-05-10T14:43:44;5.88;;;2.30;;
66487;SDS011;53304;54.550;18.526;2023-05-10T14:46:11;5.60;;;2.42;;
66487;SDS011;53304;54.550;18.526;2023-05-10T14:48:40;5.30;;;2.25;;
66487;SDS011;53304;54.550;18.526;2023-05-10T14:51:06;6.72;;;2.67;;
66487;SDS011;53304;54.550;18.526;2023-05-10T14:53:31;6.43;;;2.60;;
66487;SDS011;53304;54.550;18.526;2023-05-10T14:55:57;5.90;;;2.38;;
66487;SDS011;53304;54.550;18.526;2023-05-10T14:58:25;3.38;;;2.30;;
66487;SDS011;53304;54.550;18.526;2023-05-10T15:00:55;4.72;;;2.13;;
66487;SDS011;53304;54.550;18.526;2023-05-10T15:03:21;5.13;;;1.88;;
66487;SDS011;53304;54.550;18.526;2023-05-10T15:05:47;6.32;;;2.05;;
66487;SDS011;53304;54.550;18.526;2023-05-10T15:08:15;6.13;;;2.15;;
66487;SDS011;53304;54.550;18.526;2023-05-10T15:10:40;5.60;;;2.22;;
66487;SDS011;53304;54.550;18.526;2023-05-10T15:13:10;5.28;;;2.40;;
66487;SDS011;53304;54.550;18.526;2023-05-10T15:15:38;6.55;;;2.20;;
66487;SDS011;53304;54.550;18.526;2023-05-10T15:18:06;5.63;;;2.60;;